createdAt,value
2023-03-11T00:00:25.901Z,24.66
2023-03-11T00:01:25.828Z,24.66
2023-03-11T00:02:25.802Z,24.66
2023-03-11T00:03:25.761Z,24.68
2023-03-11T00:04:25.704Z,24.68
2023-03-11T00:05:25.789Z,24.68
2023-03-11T00:55:30.261Z,24.61
2023-03-11T00:56:31.179Z,24.57
2023-03-11T00:57:31.122Z,24.61
2023-03-11T00:58:31.127Z,24.59
2023-03-11T00:59:31.026Z,24.58
2023-03-11T01:00:31.004Z,24.56
2023-03-11T01:01:30.972Z,24.57
2023-03-11T01:02:30.890Z,24.58
2023-03-11T01:03:30.850Z,24.59
2023-03-11T01:04:30.863Z,24.62
2023-03-11T01:05:30.749Z,24.64
2023-03-11T01:06:44.489Z,24.56
2023-03-11T01:07:30.662Z,24.56
2023-03-11T01:08:30.615Z,24.54
2023-03-11T01:09:30.576Z,24.55
2023-03-11T01:10:30.522Z,24.60
2023-03-11T01:11:30.508Z,24.61
2023-03-11T01:12:30.431Z,24.61
2023-03-11T01:13:30.390Z,24.55
2023-03-11T01:14:30.347Z,24.55
2023-03-11T01:15:30.304Z,24.58
2023-03-11T01:16:30.255Z,24.62
2023-03-11T01:17:30.212Z,24.55
2023-03-11T01:18:30.168Z,24.61
2023-03-11T01:19:30.132Z,24.56
2023-03-11T01:20:30.082Z,24.52
2023-03-11T01:21:30.034Z,24.58
2023-03-11T01:22:29.993Z,24.56
2023-03-11T01:23:29.958Z,24.58
2023-03-11T01:24:29.911Z,24.49
2023-03-11T01:25:29.881Z,24.59
2023-03-11T01:26:29.838Z,24.54
2023-03-11T01:27:29.814Z,24.59
2023-03-11T01:28:29.745Z,24.55
2023-03-11T01:29:29.710Z,24.52
2023-03-11T01:30:29.684Z,24.52
2023-03-11T01:31:30.536Z,24.58
2023-03-11T01:32:29.619Z,24.55
2023-03-11T01:33:29.547Z,24.56
2023-03-11T01:34:29.510Z,24.52
2023-03-11T01:35:29.569Z,24.56
2023-03-11T01:36:29.441Z,24.56
2023-03-11T01:37:29.384Z,24.56
2023-03-11T01:38:29.337Z,24.54
2023-03-11T01:39:29.293Z,24.53
2023-03-11T01:40:29.256Z,24.58
2023-03-11T01:41:29.216Z,24.54
2023-03-11T01:42:29.180Z,24.49
2023-03-11T01:43:29.161Z,24.52
2023-03-11T01:44:29.097Z,24.55
2023-03-11T01:45:29.076Z,24.47
2023-03-11T01:46:29.079Z,24.51
2023-03-11T01:47:28.988Z,24.56
2023-03-11T01:48:28.943Z,24.52
2023-03-11T01:49:28.906Z,24.56
2023-03-11T01:50:28.859Z,24.49
2023-03-11T01:51:28.822Z,24.58
2023-03-11T01:52:28.788Z,24.55
2023-03-11T01:53:28.757Z,24.52
2023-03-11T01:54:28.711Z,24.45
2023-03-11T01:55:28.673Z,24.48
2023-03-11T01:56:28.635Z,24.47
2023-03-11T01:57:28.591Z,24.46
2023-03-11T01:58:28.551Z,24.51
2023-03-11T01:59:28.532Z,24.46
2023-03-11T02:00:28.461Z,24.49
2023-03-11T02:01:28.445Z,24.51
2023-03-11T02:02:28.455Z,24.46
2023-03-11T02:03:28.346Z,24.46
2023-03-11T02:04:28.315Z,24.43
2023-03-11T02:05:28.275Z,24.46
2023-03-11T02:06:28.230Z,24.45
2023-03-11T02:07:28.201Z,24.39
2023-03-11T02:08:28.148Z,24.51
2023-03-11T02:09:28.110Z,24.40
2023-03-11T02:10:28.077Z,24.46
2023-03-11T02:11:28.051Z,24.45
2023-03-11T02:12:27.983Z,24.38
2023-03-11T02:13:27.939Z,24.43
2023-03-11T02:14:27.891Z,24.46
2023-03-11T02:15:27.884Z,24.42
2023-03-11T02:16:27.884Z,24.45
2023-03-11T02:17:27.762Z,24.40
2023-03-11T02:18:27.725Z,24.36
2023-03-11T02:19:27.734Z,24.42
2023-03-11T02:20:27.679Z,24.39
2023-03-11T02:21:27.625Z,24.39
2023-03-11T02:22:27.545Z,24.40
2023-03-11T02:23:27.506Z,24.36
2023-03-11T02:24:27.463Z,24.33
2023-03-11T02:25:27.414Z,24.39
2023-03-11T02:26:27.373Z,24.45
2023-03-11T02:27:27.329Z,24.35
2023-03-11T02:28:27.289Z,24.39
2023-03-11T02:29:27.242Z,24.42
2023-03-11T02:30:27.199Z,24.33
2023-03-11T02:31:27.216Z,24.42
2023-03-11T02:32:27.151Z,24.39
2023-03-11T02:33:27.070Z,24.29
2023-03-11T02:34:27.030Z,24.35
2023-03-11T02:35:26.990Z,24.32
2023-03-11T02:36:26.928Z,24.30
2023-03-11T02:37:26.883Z,24.30
2023-03-11T02:38:26.839Z,24.33
2023-03-11T02:39:26.798Z,24.37
2023-03-11T02:40:26.741Z,24.32
2023-03-11T02:41:26.698Z,24.32
2023-03-11T02:42:26.662Z,24.33
2023-03-11T02:43:26.608Z,24.35
2023-03-11T02:44:26.560Z,24.30
2023-03-11T02:45:26.512Z,24.28
2023-03-11T02:46:26.513Z,24.35
2023-03-11T02:47:26.444Z,24.36
2023-03-11T02:48:26.379Z,24.30
2023-03-11T02:49:26.329Z,24.30
2023-03-11T02:50:26.335Z,24.33
2023-03-11T02:51:26.235Z,24.24
2023-03-11T02:52:26.190Z,24.28
2023-03-11T02:53:26.154Z,24.26
2023-03-11T02:54:26.101Z,24.29
2023-03-11T02:55:26.054Z,24.32
2023-03-11T02:56:26.003Z,24.24
2023-03-11T02:57:25.962Z,24.28
2023-03-11T02:58:25.911Z,24.23
2023-03-11T02:59:25.866Z,24.23
2023-03-11T03:00:25.851Z,24.17
2023-03-11T03:01:25.777Z,24.16
2023-03-11T03:02:25.744Z,24.13
2023-03-11T03:03:25.721Z,24.20
2023-03-11T03:04:25.690Z,24.11
2023-03-11T03:05:25.594Z,24.14
2023-03-11T03:06:26.377Z,24.17
2023-03-11T03:07:25.506Z,24.23
2023-03-11T03:08:25.464Z,24.16
2023-03-11T03:09:25.422Z,24.15
2023-03-11T03:10:25.384Z,24.08
2023-03-11T03:11:25.352Z,24.07
2023-03-11T03:12:25.299Z,24.17
2023-03-11T03:13:25.257Z,24.11
2023-03-11T03:14:25.241Z,24.19
2023-03-11T03:15:25.183Z,24.16
2023-03-11T03:16:25.224Z,24.05
2023-03-11T03:17:25.143Z,24.13
2023-03-11T03:18:25.043Z,24.04
2023-03-11T03:19:25.026Z,24.08
2023-03-11T03:20:24.953Z,24.13
2023-03-11T03:21:24.921Z,24.01
2023-03-11T03:22:24.875Z,24.10
2023-03-11T03:23:24.830Z,24.11
2023-03-11T03:24:24.787Z,24.05
2023-03-11T03:25:24.749Z,24.08
2023-03-11T03:26:24.709Z,24.01
2023-03-11T03:27:24.665Z,24.07
2023-03-11T03:28:24.624Z,24.04
2023-03-11T03:29:24.584Z,24.00
2023-03-11T03:30:24.561Z,24.01
2023-03-11T03:31:24.559Z,24.11
2023-03-11T03:32:24.550Z,23.92
2023-03-11T03:33:24.430Z,24.00
2023-03-11T03:34:24.385Z,23.95
2023-03-11T03:35:24.371Z,24.00
2023-03-11T03:36:24.307Z,24.01
2023-03-11T03:37:24.273Z,23.98
2023-03-11T03:38:24.228Z,23.95
2023-03-11T03:39:24.189Z,23.91
2023-03-11T03:40:24.153Z,23.95
2023-03-11T03:41:24.112Z,24.02
2023-03-11T03:42:24.069Z,24.00
2023-03-11T03:43:24.038Z,23.88
2023-03-11T03:44:23.996Z,23.97
2023-03-11T03:45:23.948Z,23.95
2023-03-11T03:46:24.012Z,23.87
2023-03-11T03:47:23.877Z,23.95
2023-03-11T03:48:23.838Z,23.88
2023-03-11T03:49:23.799Z,24.02
2023-03-11T03:50:23.779Z,23.91
2023-03-11T03:51:23.742Z,23.95
2023-03-11T03:52:23.683Z,23.94
2023-03-11T03:53:23.634Z,23.90
2023-03-11T03:54:23.599Z,23.81
2023-03-11T03:55:23.549Z,23.81
2023-03-11T03:56:23.512Z,23.88
2023-03-11T03:57:23.465Z,23.84
2023-03-11T03:58:23.423Z,23.85
2023-03-11T03:59:23.388Z,23.90
2023-03-11T04:00:23.348Z,23.86
2023-03-11T04:01:23.308Z,23.90
2023-03-11T04:02:23.411Z,23.90
2023-03-11T04:03:23.258Z,23.85
2023-03-11T04:04:23.189Z,23.84
2023-03-11T04:05:23.149Z,23.91
2023-03-11T04:06:23.100Z,23.81
2023-03-11T04:07:23.094Z,23.84
2023-03-11T04:08:23.019Z,23.75
2023-03-11T04:09:22.984Z,23.81
2023-03-11T04:10:23.006Z,23.84
2023-03-11T04:11:22.895Z,23.78
2023-03-11T04:12:22.856Z,23.79
2023-03-11T04:13:22.813Z,23.84
2023-03-11T04:14:22.792Z,23.78
2023-03-11T04:15:22.743Z,23.72
2023-03-11T04:16:22.830Z,23.82
2023-03-11T04:17:22.664Z,23.81
2023-03-11T04:18:22.619Z,23.79
2023-03-11T04:19:22.577Z,23.86
2023-03-11T04:20:22.537Z,23.81
2023-03-11T04:21:22.509Z,23.84
2023-03-11T04:22:22.449Z,23.80
2023-03-11T04:23:22.437Z,23.82
2023-03-11T04:24:22.374Z,23.83
2023-03-11T04:25:22.329Z,23.83
2023-03-11T04:26:22.289Z,23.85
2023-03-11T04:27:22.257Z,23.77
2023-03-11T04:28:22.219Z,23.81
2023-03-11T04:29:22.153Z,23.84
2023-03-11T04:30:22.118Z,23.77
2023-03-11T04:31:22.178Z,23.83
2023-03-11T04:32:22.058Z,23.79
2023-03-11T04:33:21.986Z,23.77
2023-03-11T04:34:21.963Z,23.81
2023-03-11T04:35:21.890Z,23.78
2023-03-11T04:36:21.840Z,23.71
2023-03-11T04:37:21.802Z,23.83
2023-03-11T04:38:21.774Z,23.83
2023-03-11T04:39:21.745Z,23.77
2023-03-11T04:40:22.017Z,23.78
2023-03-11T04:41:21.616Z,23.78
2023-03-11T04:42:21.573Z,23.77
2023-03-11T04:43:21.553Z,23.77
2023-03-11T04:44:21.493Z,23.85
2023-03-11T04:45:21.448Z,23.77
2023-03-11T04:46:21.462Z,23.81
2023-03-11T04:47:21.364Z,23.77
2023-03-11T04:48:21.320Z,23.77
2023-03-11T04:49:21.276Z,23.74
2023-03-11T04:50:21.226Z,23.71
2023-03-11T04:51:21.188Z,23.77
2023-03-11T04:52:21.140Z,23.80
2023-03-11T04:53:21.107Z,23.80
2023-03-11T04:54:21.064Z,23.79
2023-03-11T04:55:21.044Z,23.78
2023-03-11T04:56:20.976Z,23.73
2023-03-11T04:57:20.930Z,23.79
2023-03-11T04:58:20.892Z,23.74
2023-03-11T04:59:20.847Z,23.75
2023-03-11T05:00:20.804Z,23.68
2023-03-11T05:01:20.812Z,23.80
2023-03-11T05:02:20.721Z,23.69
2023-03-11T05:03:20.790Z,23.75
2023-03-11T05:04:20.678Z,23.75
2023-03-11T05:05:20.598Z,23.75
2023-03-11T05:06:20.555Z,23.78
2023-03-11T05:07:20.518Z,23.72
2023-03-11T05:08:20.475Z,23.78
2023-03-11T05:09:20.433Z,23.74
2023-03-11T05:10:20.390Z,23.72
2023-03-11T05:11:20.381Z,23.77
2023-03-11T05:12:20.307Z,23.75
2023-03-11T05:13:20.262Z,23.75
2023-03-11T05:14:20.216Z,23.77
2023-03-11T05:15:20.208Z,23.75
2023-03-11T05:16:20.243Z,23.68
2023-03-11T05:17:20.094Z,23.74
2023-03-11T05:18:20.062Z,23.73
2023-03-11T05:19:20.008Z,23.75
2023-03-11T05:20:19.984Z,23.74
2023-03-11T05:21:19.926Z,23.74
2023-03-11T05:22:19.890Z,23.70
2023-03-11T05:23:19.842Z,23.73
2023-03-11T05:24:19.802Z,23.70
2023-03-11T05:25:19.759Z,23.71
2023-03-11T05:26:19.714Z,23.67
2023-03-11T05:27:19.708Z,23.73
2023-03-11T05:28:19.637Z,23.73
2023-03-11T05:29:19.595Z,23.69
2023-03-11T05:30:19.568Z,23.70
2023-03-11T05:31:19.634Z,23.70
2023-03-11T05:32:19.572Z,23.71
2023-03-11T05:33:19.449Z,23.68
2023-03-11T05:34:19.407Z,23.68
2023-03-11T05:35:19.375Z,23.71
2023-03-11T05:36:19.427Z,23.73
2023-03-11T05:37:19.301Z,23.73
2023-03-11T05:38:19.277Z,23.73
2023-03-11T05:39:20.046Z,23.71
2023-03-11T05:40:19.193Z,23.68
2023-03-11T05:41:19.146Z,23.64
2023-03-11T05:42:21.281Z,23.63
2023-03-11T05:43:19.085Z,23.65
2023-03-11T05:44:19.028Z,23.67
2023-03-11T05:45:18.979Z,23.67
2023-03-11T05:46:18.966Z,23.68
2023-03-11T05:47:18.894Z,23.70
2023-03-11T05:48:18.848Z,23.64
2023-03-11T05:49:18.812Z,23.68
2023-03-11T05:50:18.784Z,23.67
2023-03-11T05:51:18.732Z,23.70
2023-03-11T05:52:18.698Z,23.67
2023-03-11T05:53:18.647Z,23.67
2023-03-11T05:54:18.650Z,23.64
2023-03-11T05:55:18.589Z,23.63
2023-03-11T05:56:18.532Z,23.68
2023-03-11T05:57:18.493Z,23.65
2023-03-11T05:58:18.484Z,23.64
2023-03-11T05:59:18.454Z,23.61
2023-03-11T06:00:18.379Z,23.63
2023-03-11T06:01:18.338Z,23.61
2023-03-11T06:02:18.304Z,23.63
2023-03-11T06:03:18.261Z,23.60
2023-03-11T06:04:18.369Z,23.64
2023-03-11T06:05:18.314Z,23.68
2023-03-11T06:06:18.146Z,23.60
2023-03-11T06:07:18.138Z,23.65
2023-03-11T06:08:18.056Z,23.58
2023-03-11T06:09:18.010Z,23.61
2023-03-11T06:10:17.967Z,23.64
2023-03-11T06:11:17.922Z,23.63
2023-03-11T06:12:17.930Z,23.64
2023-03-11T06:13:17.835Z,23.64
2023-03-11T06:14:17.804Z,23.55
2023-03-11T06:15:17.793Z,23.63
2023-03-11T06:16:17.834Z,23.58
2023-03-11T06:17:17.673Z,23.61
2023-03-11T06:18:17.632Z,23.67
2023-03-11T06:19:17.589Z,23.64
2023-03-11T06:20:17.543Z,23.61
2023-03-11T06:21:17.506Z,23.55
2023-03-11T06:22:17.467Z,23.57
2023-03-11T06:23:17.427Z,23.55
2023-03-11T06:24:17.382Z,23.58
2023-03-11T06:25:17.348Z,23.58
2023-03-11T06:26:17.305Z,23.57
2023-03-11T06:27:17.258Z,23.60
2023-03-11T06:28:17.222Z,23.61
2023-03-11T06:29:17.184Z,23.55
2023-03-11T06:30:17.133Z,23.60
2023-03-11T06:31:17.172Z,23.58
2023-03-11T06:32:17.127Z,23.58
2023-03-11T06:33:17.012Z,23.57
2023-03-11T06:34:16.971Z,23.53
2023-03-11T06:35:16.920Z,23.61
2023-03-11T06:36:16.877Z,23.57
2023-03-11T06:37:16.848Z,23.54
2023-03-11T06:38:16.799Z,23.55
2023-03-11T06:39:16.758Z,23.54
2023-03-11T06:40:16.720Z,23.52
2023-03-11T06:41:16.681Z,23.57
2023-03-11T06:42:16.639Z,23.51
2023-03-11T06:43:16.600Z,23.55
2023-03-11T06:44:16.560Z,23.58
2023-03-11T06:45:17.879Z,23.58
2023-03-11T06:46:16.627Z,23.53
2023-03-11T06:47:16.485Z,23.54
2023-03-11T06:48:16.389Z,23.56
2023-03-11T06:49:16.346Z,23.51
2023-03-11T06:50:16.315Z,23.51
2023-03-11T06:51:16.274Z,23.48
2023-03-11T06:52:16.578Z,23.47
2023-03-11T06:53:16.180Z,23.48
2023-03-11T06:54:16.136Z,23.51
2023-03-11T06:55:16.088Z,23.50
2023-03-11T06:56:16.053Z,23.53
2023-03-11T06:57:16.012Z,23.60
2023-03-11T06:58:15.962Z,23.60
2023-03-11T06:59:15.926Z,23.50
2023-03-11T07:00:15.891Z,23.50
2023-03-11T07:01:15.859Z,23.53
2023-03-11T07:02:15.816Z,23.50
2023-03-11T07:03:15.791Z,23.47
2023-03-11T07:04:15.760Z,23.46
2023-03-11T07:05:15.697Z,23.51
2023-03-11T07:06:15.658Z,23.53
2023-03-11T07:07:15.621Z,23.51
2023-03-11T07:08:15.584Z,23.47
2023-03-11T07:09:15.536Z,23.47
2023-03-11T07:10:15.506Z,23.47
2023-03-11T07:11:15.477Z,23.46
2023-03-11T07:12:15.424Z,23.43
2023-03-11T07:13:16.569Z,23.41
2023-03-11T07:14:15.333Z,23.43
2023-03-11T07:15:15.505Z,23.41
2023-03-11T07:16:15.628Z,23.43
2023-03-11T07:17:15.545Z,23.47
2023-03-11T07:18:15.164Z,23.41
2023-03-11T07:19:15.140Z,23.38
2023-03-11T07:20:15.072Z,23.44
2023-03-11T07:21:15.029Z,23.40
2023-03-11T07:22:15.516Z,23.43
2023-03-11T07:23:14.934Z,23.40
2023-03-11T07:24:15.257Z,23.40
2023-03-11T07:25:14.824Z,23.40
2023-03-11T07:26:15.338Z,23.40
2023-03-11T07:27:15.217Z,23.36
2023-03-11T07:28:14.679Z,23.46
2023-03-11T07:29:15.075Z,23.38
2023-03-11T07:30:14.805Z,23.41
2023-03-11T07:31:14.629Z,23.36
2023-03-11T07:32:14.560Z,23.38
2023-03-11T07:33:14.444Z,23.33
2023-03-11T07:34:14.404Z,23.38
2023-03-11T07:35:14.376Z,23.38
2023-03-11T07:36:14.301Z,23.37
2023-03-11T07:37:14.411Z,23.38
2023-03-11T07:38:14.211Z,23.38
2023-03-11T07:39:14.159Z,23.36
2023-03-11T07:40:14.108Z,23.38
2023-03-11T07:41:14.295Z,23.36
2023-03-11T07:42:14.039Z,23.37
2023-03-11T07:43:13.968Z,23.41
2023-03-11T07:44:13.924Z,23.43
2023-03-11T07:45:14.015Z,23.38
2023-03-11T07:46:14.140Z,23.36
2023-03-11T07:47:14.139Z,23.36
2023-03-11T07:48:14.950Z,23.36
2023-03-11T07:49:14.034Z,23.38
2023-03-11T07:50:13.637Z,23.38
2023-03-11T07:51:13.660Z,23.33
2023-03-11T07:52:13.547Z,23.36
2023-03-11T07:53:13.503Z,23.34
2023-03-11T07:54:13.458Z,23.33
2023-03-11T07:55:13.408Z,23.31
2023-03-11T07:56:13.371Z,23.36
2023-03-11T07:57:13.311Z,23.34
2023-03-11T07:58:13.268Z,23.40
2023-03-11T07:59:13.243Z,23.36
2023-03-11T08:00:13.189Z,23.34
2023-03-11T08:01:13.145Z,23.34
2023-03-11T08:02:13.151Z,23.34
2023-03-11T08:03:13.113Z,23.34
2023-03-11T08:04:14.714Z,23.36
2023-03-11T08:05:12.958Z,23.31
2023-03-11T08:06:12.912Z,23.34
2023-03-11T08:07:12.904Z,23.34
2023-03-11T08:08:12.815Z,23.36
2023-03-11T08:09:12.772Z,23.30
2023-03-11T08:10:12.738Z,23.33
2023-03-11T08:11:12.753Z,23.33
2023-03-11T08:12:12.625Z,23.36
2023-03-11T08:13:12.584Z,23.28
2023-03-11T08:14:12.535Z,23.30
2023-03-11T08:15:12.491Z,23.31
2023-03-11T08:16:12.449Z,23.30
2023-03-11T08:17:12.392Z,23.28
2023-03-11T08:18:12.352Z,23.27
2023-03-11T08:19:12.303Z,23.37
2023-03-11T08:20:12.269Z,23.33
2023-03-11T08:21:12.210Z,23.28
2023-03-11T08:22:12.163Z,23.22
2023-03-11T08:23:12.152Z,23.20
2023-03-11T08:24:12.093Z,23.24
2023-03-11T08:25:12.023Z,23.28
2023-03-11T08:26:11.976Z,23.32
2023-03-11T08:27:11.927Z,23.24
2023-03-11T08:28:11.881Z,23.27
2023-03-11T08:29:11.838Z,23.25
2023-03-11T08:30:11.784Z,23.22
2023-03-11T08:31:11.798Z,23.24
2023-03-11T08:32:11.719Z,23.22
2023-03-11T08:33:11.646Z,23.25
2023-03-11T08:34:11.613Z,23.24
2023-03-11T08:35:11.545Z,23.24
2023-03-11T08:36:11.570Z,23.24
2023-03-11T08:37:11.450Z,23.22
2023-03-11T08:38:11.401Z,23.24
2023-03-11T08:39:11.569Z,23.24
2023-03-11T08:40:11.320Z,23.22
2023-03-11T08:41:11.259Z,23.20
2023-03-11T08:42:11.209Z,23.20
2023-03-11T08:43:11.174Z,23.17
2023-03-11T08:44:11.119Z,23.18
2023-03-11T08:45:11.079Z,23.17
2023-03-11T08:46:11.080Z,23.19
2023-03-11T08:47:10.973Z,23.19
2023-03-11T08:48:10.924Z,23.16
2023-03-11T08:49:10.874Z,23.16
2023-03-11T08:50:10.832Z,23.14
2023-03-11T08:51:10.793Z,23.19
2023-03-11T08:52:10.736Z,23.18
2023-03-11T08:53:10.705Z,23.18
2023-03-11T08:54:10.637Z,23.14
2023-03-11T08:55:10.608Z,23.15
2023-03-11T08:56:10.538Z,23.15
2023-03-11T08:57:10.498Z,23.16
2023-03-11T08:58:10.439Z,23.13
2023-03-11T08:59:10.395Z,23.07
2023-03-11T09:00:12.975Z,23.15
2023-03-11T09:01:10.299Z,23.11
2023-03-11T09:02:10.260Z,23.13
2023-03-11T09:03:10.608Z,23.18
2023-03-11T09:04:10.161Z,23.15
2023-03-11T09:05:10.107Z,23.11
2023-03-11T09:06:10.139Z,23.13
2023-03-11T09:07:10.023Z,23.15
2023-03-11T09:08:09.982Z,23.15
2023-03-11T09:09:09.929Z,23.11
2023-03-11T09:10:09.902Z,23.09
2023-03-11T09:11:09.884Z,23.13
2023-03-11T09:12:09.804Z,23.07
2023-03-11T09:13:09.788Z,23.11
2023-03-11T09:14:09.693Z,23.11
2023-03-11T09:15:09.645Z,23.07
2023-03-11T09:16:09.697Z,23.07
2023-03-11T09:17:09.548Z,23.09
2023-03-11T09:18:09.494Z,23.11
2023-03-11T09:19:09.467Z,23.10
2023-03-11T09:20:09.403Z,23.07
2023-03-11T09:21:09.356Z,23.10
2023-03-11T09:22:09.306Z,23.04
2023-03-11T09:23:09.257Z,23.02
2023-03-11T09:24:09.272Z,23.05
2023-03-11T09:25:09.169Z,23.07
2023-03-11T09:26:09.132Z,23.05
2023-03-11T09:27:09.115Z,23.09
2023-03-11T09:28:09.037Z,23.04
2023-03-11T09:29:08.997Z,23.04
2023-03-11T09:30:08.967Z,23.01
2023-03-11T09:31:09.030Z,22.99
2023-03-11T09:32:08.870Z,23.04
2023-03-11T09:33:08.820Z,23.07
2023-03-11T09:34:08.813Z,23.04
2023-03-11T09:35:08.736Z,23.07
2023-03-11T09:36:08.695Z,23.01
2023-03-11T09:37:08.646Z,22.98
2023-03-11T09:38:08.606Z,23.04
2023-03-11T09:39:08.566Z,23.03
2023-03-11T09:40:08.552Z,23.02
2023-03-11T09:41:08.488Z,23.03
2023-03-11T09:42:08.446Z,22.98
2023-03-11T09:43:08.433Z,22.99
2023-03-11T09:44:08.378Z,22.95
2023-03-11T09:45:08.354Z,22.99
2023-03-11T09:46:08.293Z,23.01
2023-03-11T09:47:08.254Z,22.98
2023-03-11T09:48:08.211Z,23.00
2023-03-11T09:49:08.172Z,22.95
2023-03-11T09:50:08.111Z,22.93
2023-03-11T09:51:08.070Z,22.98
2023-03-11T09:52:08.025Z,22.98
2023-03-11T09:53:08.022Z,22.93
2023-03-11T09:54:07.949Z,22.98
2023-03-11T09:55:07.922Z,22.98
2023-03-11T09:56:07.841Z,22.97
2023-03-11T09:57:07.800Z,22.98
2023-03-11T09:58:07.750Z,22.93
2023-03-11T09:59:07.731Z,22.97
2023-03-11T10:00:07.682Z,22.97
2023-03-11T10:01:07.614Z,22.97
2023-03-11T10:02:07.754Z,22.92
2023-03-11T10:03:07.582Z,22.94
2023-03-11T10:04:07.488Z,22.91
2023-03-11T10:05:07.473Z,22.95
2023-03-11T10:06:07.388Z,22.92
2023-03-11T10:07:07.345Z,22.92
2023-03-11T10:08:07.300Z,22.92
2023-03-11T10:09:07.281Z,22.87
2023-03-11T10:10:07.225Z,22.92
2023-03-11T10:11:07.164Z,22.92
2023-03-11T10:12:07.105Z,22.94
2023-03-11T10:13:07.049Z,22.97
2023-03-11T10:14:07.015Z,22.91
2023-03-11T10:15:06.976Z,22.92
2023-03-11T10:16:06.967Z,22.92
2023-03-11T10:17:06.856Z,22.94
2023-03-11T10:18:06.802Z,22.94
2023-03-11T10:19:06.754Z,22.95
2023-03-11T10:20:06.713Z,22.92
2023-03-11T10:21:06.654Z,22.95
2023-03-11T10:22:06.673Z,22.92
2023-03-11T10:23:06.589Z,22.91
2023-03-11T10:24:06.507Z,22.94
2023-03-11T10:25:06.466Z,22.91
2023-03-11T10:26:06.415Z,22.90
2023-03-11T10:27:06.359Z,22.95
2023-03-11T10:28:06.316Z,22.95
2023-03-11T10:29:06.261Z,22.92
2023-03-11T10:30:06.231Z,22.91
2023-03-11T10:31:06.187Z,22.92
2023-03-11T10:32:06.117Z,22.91
2023-03-11T10:33:06.065Z,22.91
2023-03-11T10:34:06.016Z,22.89
2023-03-11T10:35:05.963Z,22.88
2023-03-11T10:36:05.981Z,22.88
2023-03-11T10:37:05.870Z,22.88
2023-03-11T10:38:06.148Z,22.88
2023-03-11T10:39:05.786Z,22.87
2023-03-11T10:40:05.741Z,22.92
2023-03-11T10:41:05.703Z,22.84
2023-03-11T10:42:05.662Z,22.87
2023-03-11T10:43:05.638Z,22.89
2023-03-11T10:44:05.546Z,22.88
2023-03-11T10:45:05.488Z,22.91
2023-03-11T10:46:05.482Z,22.89
2023-03-11T10:47:05.431Z,22.92
2023-03-11T10:48:05.342Z,22.80
2023-03-11T10:49:05.295Z,22.94
2023-03-11T10:50:05.252Z,22.83
2023-03-11T10:51:05.214Z,22.86
2023-03-11T10:52:05.167Z,22.86
2023-03-11T10:53:05.115Z,22.92
2023-03-11T10:54:05.073Z,22.91
2023-03-11T10:55:05.030Z,22.88
2023-03-11T10:56:04.984Z,22.84
2023-03-11T10:58:04.909Z,22.87
2023-03-11T10:59:04.871Z,22.84
2023-03-11T11:00:04.848Z,22.88
2023-03-11T11:01:04.800Z,22.88
2023-03-11T11:02:04.727Z,22.89
2023-03-11T11:03:04.722Z,22.89
2023-03-11T11:04:04.676Z,22.82
2023-03-11T11:05:04.597Z,22.88
2023-03-11T12:02:02.024Z,22.72
2023-03-11T13:01:59.189Z,22.52
2023-03-11T13:15:00.141Z,22.52
2023-03-11T13:15:58.464Z,22.56
2023-03-11T13:16:58.463Z,22.52
2023-03-11T13:17:58.346Z,22.54
2023-03-11T13:18:58.294Z,22.53
2023-03-11T13:19:58.708Z,22.56
2023-03-11T13:20:58.212Z,22.54
2023-03-11T13:21:58.155Z,22.48
2023-03-11T13:22:58.123Z,22.49
2023-03-11T13:23:58.064Z,22.52
2023-03-11T13:24:58.027Z,22.48
2023-03-11T13:25:57.978Z,22.51
2023-03-11T13:26:57.968Z,22.56
2023-03-11T13:27:57.877Z,22.48
2023-03-11T13:28:57.829Z,22.49
2023-03-11T13:29:57.791Z,22.53
2023-03-11T13:30:57.811Z,22.51
2023-03-11T13:31:57.704Z,22.53
2023-03-11T13:32:57.739Z,22.49
2023-03-11T13:33:57.607Z,22.51
2023-03-11T13:34:57.556Z,22.48
2023-03-11T13:35:57.547Z,22.48
2023-03-11T13:36:57.462Z,22.43
2023-03-11T13:37:57.413Z,22.51
2023-03-11T13:38:57.358Z,22.49
2023-03-11T13:39:57.313Z,22.47
2023-03-11T13:40:57.264Z,22.47
2023-03-11T13:41:57.234Z,22.54
2023-03-11T13:42:57.239Z,22.45
2023-03-11T13:43:57.132Z,22.50
2023-03-11T13:44:57.225Z,22.46
2023-03-11T15:21:52.198Z,22.27
2023-03-11T16:11:49.768Z,22.22
2023-03-11T16:39:48.376Z,22.23
2023-03-11T16:40:48.332Z,22.15
2023-03-11T16:41:48.291Z,22.17
2023-03-11T16:42:48.240Z,22.21
2023-03-11T16:43:48.207Z,22.23
2023-03-11T16:44:48.148Z,22.18
2023-03-11T16:45:48.109Z,22.21
2023-03-11T16:46:48.115Z,22.23
2023-03-11T16:47:47.996Z,22.24
2023-03-11T16:48:47.951Z,22.24
2023-03-11T16:49:47.910Z,22.27
2023-03-11T16:50:48.282Z,22.24
2023-03-11T16:51:47.812Z,22.24
2023-03-11T16:52:47.756Z,22.23
2023-03-11T16:53:47.716Z,22.18
2023-03-11T16:54:47.688Z,22.16
2023-03-11T16:55:47.632Z,22.19
2023-03-11T16:56:47.561Z,22.21
2023-03-11T16:57:47.522Z,22.21
2023-03-11T16:58:47.462Z,22.21
2023-03-11T16:59:47.409Z,22.16
2023-03-11T17:00:47.372Z,22.21
2023-03-11T17:01:47.366Z,22.15
2023-03-11T17:02:47.264Z,22.18
2023-03-11T17:03:47.219Z,22.16
2023-03-11T17:04:47.188Z,22.17
2023-03-11T17:05:47.116Z,22.18
2023-03-11T17:06:47.074Z,22.18
2023-03-11T17:07:47.022Z,22.09
2023-03-11T17:08:46.979Z,22.15
2023-03-11T17:09:46.928Z,22.13
2023-03-11T17:10:46.911Z,22.16
2023-03-11T17:11:46.814Z,22.19
2023-03-11T17:12:46.755Z,22.18
2023-03-11T17:13:46.723Z,22.12
2023-03-11T17:14:46.701Z,22.12
2023-03-11T17:15:46.609Z,22.15
2023-03-11T17:16:46.555Z,22.18
2023-03-11T17:17:46.509Z,22.13
2023-03-11T17:18:46.476Z,22.19
2023-03-11T17:19:46.410Z,22.19
2023-03-11T17:20:46.357Z,22.15
2023-03-11T17:21:46.310Z,22.12
2023-03-11T17:22:46.260Z,22.07
2023-03-11T17:23:46.205Z,22.02
2023-03-11T17:24:46.172Z,22.10
2023-03-11T17:25:46.113Z,22.12
2023-03-11T17:26:46.100Z,22.07
2023-03-11T17:27:46.010Z,22.09
2023-03-11T17:28:45.976Z,22.05
2023-03-11T17:29:45.926Z,22.04
2023-03-11T17:30:45.873Z,22.13
2023-03-11T17:31:45.884Z,22.09
2023-03-11T17:32:45.849Z,22.07
2023-03-11T17:33:45.746Z,22.04
2023-03-11T17:34:45.679Z,22.12
2023-03-11T17:35:45.704Z,22.13
2023-03-11T17:36:45.583Z,22.10
2023-03-11T17:37:45.540Z,22.07
2023-03-11T17:38:45.486Z,22.04
2023-03-11T17:39:45.452Z,22.10
2023-03-11T17:40:45.396Z,22.10
2023-03-11T17:41:45.348Z,22.10
2023-03-11T17:42:45.328Z,22.08
2023-03-11T17:43:45.252Z,22.12
2023-03-11T17:44:51.846Z,22.07
2023-03-11T17:45:45.156Z,22.09
2023-03-11T17:46:45.230Z,22.10
2023-03-11T17:47:45.068Z,22.13
2023-03-11T17:48:45.016Z,22.11
2023-03-11T17:49:44.963Z,22.11
2023-03-11T17:50:44.921Z,22.13
2023-03-11T17:51:44.869Z,22.11
2023-03-11T17:52:44.826Z,22.13
2023-03-11T17:53:46.019Z,22.11
2023-03-11T17:54:44.737Z,22.02
2023-03-11T17:55:44.690Z,21.97
2023-03-11T17:56:44.645Z,22.05
2023-03-11T17:57:45.959Z,22.02
2023-03-11T17:58:44.590Z,22.04
2023-03-11T17:59:44.543Z,22.04
2023-03-11T18:00:44.467Z,22.05
2023-03-11T18:01:44.468Z,22.10
2023-03-11T18:02:44.377Z,22.02
2023-03-11T18:03:44.384Z,22.08
2023-03-11T18:04:44.285Z,22.03
2023-03-11T18:05:44.235Z,22.07
2023-03-11T18:06:44.199Z,22.08
2023-03-11T18:07:44.144Z,22.03
2023-03-11T18:08:44.098Z,22.07
2023-03-11T18:09:44.053Z,22.05
2023-03-11T18:10:44.003Z,22.03
2023-03-11T18:12:43.931Z,22.05
2023-03-11T18:13:43.862Z,22.11
2023-03-11T18:14:43.846Z,22.03
2023-03-11T18:15:43.785Z,22.03
2023-03-11T18:16:43.798Z,22.02
2023-03-11T18:17:43.697Z,22.00
2023-03-11T18:18:43.624Z,21.93
2023-03-11T18:19:43.572Z,21.97
2023-03-11T18:20:43.518Z,21.96
2023-03-11T18:21:43.476Z,22.00
2023-03-11T18:22:46.187Z,21.98
2023-03-11T18:23:43.425Z,22.02
2023-03-11T18:24:43.327Z,22.10
2023-03-11T18:25:43.282Z,22.03
2023-03-11T18:26:43.239Z,21.99
2023-03-11T18:27:43.196Z,22.05
2023-03-11T18:28:43.160Z,22.02
2023-03-11T18:29:43.114Z,22.03
2023-03-11T18:30:43.099Z,22.00
2023-03-11T18:31:43.166Z,21.99
2023-03-11T18:32:43.027Z,21.97
2023-03-11T18:33:42.935Z,21.95
2023-03-11T18:34:42.889Z,21.94
2023-03-11T18:35:42.933Z,21.99
2023-03-11T18:36:42.781Z,21.97
2023-03-11T18:37:42.737Z,21.97
2023-03-11T18:39:42.639Z,21.97
2023-03-11T18:40:42.580Z,21.98
2023-03-11T18:41:42.525Z,22.00
2023-03-11T18:42:42.490Z,21.95